Time;durP1;ratioP1;P1;durP2;ratioP2;P2;SDS_P1;SDS_P2;PMS_P1;PMS_P2;Temp;Humidity;BMP_temperature;BMP_pressure;BME280_temperature;BME280_humidity;BME280_pressure;Samples;Min_cycle;Max_cycle;Signal;HPM_P1;HPM_P2
2023/05/01 00:00:05;;;;;;;6.80;4.13;;;13.60;64.10;;;;;;5066240;28;20466;-65
2023/05/01 00:02:43;;;;;;;8.40;4.60;;;13.60;64.10;;;;;;5072726;28;20475;-65
2023/05/01 00:05:24;;;;;;;9.23;4.60;;;13.50;64.20;;;;;;5068415;28;20477;-65
2023/05/01 00:08:05;;;;;;;9.43;5.20;;;13.50;64.30;;;;;;5069276;28;20526;-65
2023/05/01 00:10:46;;;;;;;9.80;4.70;;;13.50;64.40;;;;;;5073032;28;20551;-65
2023/05/01 00:13:23;;;;;;;7.67;3.87;;;13.50;64.50;;;;;;5070419;28;20452;-65
2023/05/01 00:15:54;;;;;;;6.70;4.33;;;13.50;64.50;;;;;;5071897;28;20470;-65
2023/05/01 00:18:34;;;;;;;8.07;4.80;;;13.50;64.50;;;;;;5068665;28;20480;-65
2023/05/01 00:21:07;;;;;;;7.80;4.50;;;13.50;64.70;;;;;;5069946;28;20473;-65
2023/05/01 00:23:41;;;;;;;7.80;5.43;;;13.40;64.70;;;;;;5068819;28;20486;-65
2023/05/01 00:26:18;;;;;;;6.90;4.60;;;13.40;64.70;;;;;;5069072;28;20452;-65
2023/05/01 00:29:06;;;;;;;7.50;4.33;;;13.40;64.70;;;;;;5070519;28;20485;-65
2023/05/01 00:31:40;;;;;;;7.53;4.40;;;13.30;64.70;;;;;;5067752;28;20493;-65
2023/05/01 00:34:12;;;;;;;9.70;4.80;;;13.30;64.80;;;;;;5070041;28;20457;-65
2023/05/01 00:36:45;;;;;;;10.70;4.63;;;13.30;64.90;;;;;;5069199;28;20457;-65
2023/05/01 00:39:17;;;;;;;9.00;5.30;;;13.20;65.00;;;;;;5068949;28;20929;-66
2023/05/01 00:41:49;;;;;;;8.83;5.67;;;13.20;65.00;;;;;;5063825;28;20492;-66
2023/05/01 00:44:23;;;;;;;8.43;5.13;;;13.20;65.10;;;;;;5067119;28;20496;-66
2023/05/01 00:46:59;;;;;;;11.10;5.23;;;13.20;65.10;;;;;;5068145;28;21144;-64
2023/05/01 00:49:33;;;;;;;9.33;5.30;;;13.20;65.20;;;;;;5064373;28;20457;-64
2023/05/01 00:52:03;;;;;;;8.50;4.67;;;13.10;65.30;;;;;;5060981;28;20460;-64
2023/05/01 00:54:38;;;;;;;10.20;5.20;;;13.10;65.30;;;;;;5062059;28;20469;-64
2023/05/01 00:57:09;;;;;;;7.40;4.30;;;13.10;65.40;;;;;;5067136;28;20469;-64
2023/05/01 00:59:44;;;;;;;8.33;4.80;;;13.10;65.40;;;;;;5068349;28;21150;-64
2023/05/01 01:02:20;;;;;;;7.47;4.70;;;13.10;65.50;;;;;;5066080;28;20488;-64
2023/05/01 01:04:52;;;;;;;9.67;5.60;;;13.10;65.50;;;;;;5065838;28;20523;-67
2023/05/01 01:07:34;;;;;;;8.43;5.70;;;13.10;65.50;;;;;;5060527;28;20472;-65
2023/05/01 01:10:19;;;;;;;9.57;5.93;;;13.10;65.40;;;;;;5064641;28;20500;-65
2023/05/01 01:13:03;;;;;;;8.83;6.37;;;13.00;65.40;;;;;;5063450;28;20461;-65
2023/05/01 01:15:56;;;;;;;11.70;6.70;;;12.90;65.50;;;;;;5066937;28;20531;-64
2023/05/01 01:18:49;;;;;;;11.07;6.30;;;12.90;65.40;;;;;;5067336;28;20489;-64
2023/05/01 01:21:27;;;;;;;8.60;5.10;;;12.90;65.50;;;;;;5063402;28;20468;-64
2023/05/01 01:24:38;;;;;;;9.30;5.90;;;12.80;65.70;;;;;;5066201;28;20526;-66
2023/05/01 01:27:38;;;;;;;10.73;6.07;;;12.80;65.70;;;;;;5049549;28;20520;-64
2023/05/01 01:30:32;;;;;;;7.53;5.27;;;12.70;65.80;;;;;;5070386;28;20478;-65
2023/05/01 01:33:41;;;;;;;6.93;5.37;;;12.70;66.00;;;;;;5065707;28;20465;-64
2023/05/01 01:36:20;;;;;;;8.73;5.13;;;12.70;66.00;;;;;;5066338;28;20460;-64
2023/05/01 01:39:03;;;;;;;11.27;5.53;;;12.70;66.10;;;;;;5068456;28;20504;-64
2023/05/01 01:41:39;;;;;;;7.87;5.40;;;12.70;66.10;;;;;;5067967;28;20883;-64
2023/05/01 01:47:16;;;;;;;7.77;5.50;;;12.70;66.30;;;;;;5064512;28;20575;-64
2023/05/01 01:53:08;;;;;;;10.60;5.40;;;12.70;66.40;;;;;;5067083;28;20492;-66
2023/05/01 01:55:42;;;;;;;7.40;5.13;;;12.70;66.30;;;;;;5072062;28;20465;-65
2023/05/01 01:58:23;;;;;;;9.07;5.50;;;12.60;66.30;;;;;;5062125;28;20493;-65
2023/05/01 02:00:55;;;;;;;7.47;4.83;;;12.60;66.30;;;;;;5066182;28;20480;-65
2023/05/01 02:03:27;;;;;;;6.93;4.80;;;12.50;66.40;;;;;;5063555;28;20460;-65
2023/05/01 02:06:03;;;;;;;8.57;5.67;;;12.50;66.40;;;;;;5066531;28;20478;-65
2023/05/01 02:08:45;;;;;;;8.33;4.80;;;12.50;66.50;;;;;;5065812;28;20466;-65
2023/05/01 02:11:21;;;;;;;8.63;5.53;;;12.50;66.60;;;;;;5076721;28;20500;-65
2023/05/01 02:14:00;;;;;;;9.57;5.93;;;12.50;66.60;;;;;;5061318;28;20462;-65
2023/05/01 02:16:35;;;;;;;9.73;5.63;;;12.50;66.60;;;;;;5062681;28;20917;-65
2023/05/01 02:19:08;;;;;;;7.13;5.40;;;12.50;66.70;;;;;;5064048;28;21115;-65
2023/05/01 02:21:49;;;;;;;8.37;5.20;;;12.50;66.70;;;;;;5065308;28;20791;-65
2023/05/01 02:24:31;;;;;;;9.67;5.57;;;12.40;66.70;;;;;;5062565;28;20554;-65
2023/05/01 02:27:11;;;;;;;12.03;5.40;;;12.40;66.80;;;;;;5066519;28;20461;-65
2023/05/01 02:29:45;;;;;;;6.93;4.90;;;12.40;66.90;;;;;;5072721;28;21059;-65
2023/05/01 02:32:17;;;;;;;9.70;5.83;;;12.40;66.90;;;;;;5052163;28;20871;-65
2023/05/01 02:34:50;;;;;;;8.90;5.73;;;12.40;66.90;;;;;;5070155;28;20543;-65
2023/05/01 02:37:29;;;;;;;10.30;4.83;;;12.40;67.00;;;;;;5065344;28;20464;-65
2023/05/01 02:40:07;;;;;;;9.03;5.07;;;12.40;66.90;;;;;;5072384;28;20470;-65
2023/05/01 02:42:46;;;;;;;10.20;5.53;;;12.40;66.90;;;;;;5070324;28;20483;-65
2023/05/01 02:45:23;;;;;;;8.67;5.77;;;12.30;67.00;;;;;;5073615;28;20492;-65
2023/05/01 02:47:58;;;;;;;6.97;5.37;;;12.30;67.00;;;;;;5072012;28;20469;-65
2023/05/01 02:50:31;;;;;;;8.70;5.60;;;12.30;67.10;;;;;;5068506;28;20472;-65
2023/05/01 02:53:14;;;;;;;10.40;5.23;;;12.30;67.30;;;;;;5070492;28;20781;-65
2023/05/01 02:55:57;;;;;;;8.70;5.37;;;12.30;67.30;;;;;;5071370;28;20509;-65
2023/05/01 02:58:35;;;;;;;7.80;5.60;;;12.30;67.40;;;;;;5076371;28;20533;-65
2023/05/01 03:01:07;;;;;;;8.80;5.37;;;12.30;67.50;;;;;;5069468;28;20801;-65
2023/05/01 03:03:48;;;;;;;10.10;5.00;;;12.30;67.50;;;;;;5070000;28;20452;-65
2023/05/01 03:06:23;;;;;;;8.50;5.90;;;12.30;67.50;;;;;;5069888;28;20490;-65
2023/05/01 03:09:04;;;;;;;8.30;5.47;;;12.30;67.50;;;;;;5072139;28;20550;-66
2023/05/01 03:11:39;;;;;;;10.27;6.33;;;12.30;67.50;;;;;;5069780;28;20464;-65
2023/05/01 03:14:10;;;;;;;6.73;5.00;;;12.20;67.60;;;;;;5070257;28;20471;-65
2023/05/01 03:16:44;;;;;;;8.60;5.73;;;12.20;67.70;;;;;;5070731;28;20519;-65
2023/05/01 03:19:19;;;;;;;8.40;5.83;;;12.20;67.70;;;;;;5071495;28;20458;-65
2023/05/01 03:21:58;;;;;;;8.87;5.20;;;12.20;67.80;;;;;;5070002;28;20943;-64
2023/05/01 03:24:35;;;;;;;8.10;5.40;;;12.20;67.80;;;;;;5061709;28;20497;-65
2023/05/01 03:27:12;;;;;;;13.60;5.90;;;12.20;67.90;;;;;;5065143;28;20474;-65
2023/05/01 03:29:46;;;;;;;9.07;5.30;;;12.20;67.90;;;;;;5070215;28;20454;-65
2023/05/01 03:35:11;;;;;;;8.03;6.10;;;12.10;67.90;;;;;;5067506;28;20459;-65
2023/05/01 03:37:43;;;;;;;9.67;6.87;;;12.10;68.10;;;;;;5066440;28;20456;-65
2023/05/01 03:40:29;;;;;;;10.00;6.50;;;12.10;68.10;;;;;;5070638;28;20541;-65
2023/05/01 03:43:25;;;;;;;10.03;6.60;;;12.10;68.10;;;;;;5069661;28;21120;-65
2023/05/01 03:46:01;;;;;;;9.87;6.40;;;12.00;68.20;;;;;;5068305;28;20556;-65
2023/05/01 03:48:33;;;;;;;13.67;7.17;;;12.00;68.20;;;;;;5068738;28;20502;-65
2023/05/01 03:51:17;;;;;;;11.53;6.80;;;12.00;68.30;;;;;;5068569;28;20457;-65
2023/05/01 03:54:01;;;;;;;12.50;7.50;;;12.00;68.30;;;;;;5071510;28;20988;-65
2023/05/01 03:56:40;;;;;;;9.83;7.13;;;12.00;68.40;;;;;;5068180;28;20520;-65
2023/05/01 03:59:26;;;;;;;10.30;6.47;;;12.00;68.40;;;;;;5067194;28;20519;-65
2023/05/01 04:01:57;;;;;;;11.40;6.57;;;12.00;68.40;;;;;;5069617;28;20484;-65
2023/05/01 04:04:32;;;;;;;9.23;7.00;;;12.00;68.30;;;;;;5067661;28;20473;-65
2023/05/01 04:07:11;;;;;;;11.37;6.60;;;11.90;68.30;;;;;;5069886;28;20858;-64
2023/05/01 04:09:50;;;;;;;9.53;6.97;;;11.90;68.40;;;;;;5069662;28;20460;-65
2023/05/01 04:12:24;;;;;;;9.77;5.83;;;11.90;68.50;;;;;;5062461;28;20463;-66
2023/05/01 04:15:12;;;;;;;9.40;6.27;;;11.80;68.50;;;;;;5067649;28;21110;-65
2023/05/01 04:17:52;;;;;;;10.00;6.50;;;11.90;68.70;;;;;;5070249;28;20461;-64
2023/05/01 04:20:26;;;;;;;10.37;5.57;;;11.90;68.70;;;;;;5062847;28;20466;-65
2023/05/01 04:22:58;;;;;;;11.67;6.03;;;11.90;68.80;;;;;;5066843;28;20461;-65
2023/05/01 04:25:34;;;;;;;8.30;5.83;;;11.90;68.90;;;;;;5065937;28;20485;-65
2023/05/01 04:28:20;;;;;;;10.43;7.10;;;11.90;68.90;;;;;;5068302;28;20527;-65
2023/05/01 04:31:00;;;;;;;8.57;5.77;;;11.90;68.90;;;;;;5065305;28;20601;-65
2023/05/01 04:33:39;;;;;;;12.33;7.20;;;11.90;69.10;;;;;;5067843;28;21031;-65
2023/05/01 04:36:20;;;;;;;9.67;6.70;;;11.90;69.10;;;;;;5069486;28;20452;-65
2023/05/01 04:39:01;;;;;;;9.10;6.20;;;11.90;69.10;;;;;;5064894;28;20558;-64
2023/05/01 04:41:36;;;;;;;8.87;6.40;;;11.90;69.10;;;;;;5070173;28;20484;-65
2023/05/01 04:44:10;;;;;;;10.50;6.83;;;11.90;69.30;;;;;;5068897;28;20456;-64
2023/05/01 04:46:53;;;;;;;10.20;6.37;;;11.90;69.40;;;;;;5067682;28;20490;-65
2023/05/01 04:49:28;;;;;;;11.37;6.70;;;11.90;69.30;;;;;;5083397;28;21365;-65
2023/05/01 04:52:03;;;;;;;10.20;7.23;;;12.00;69.30;;;;;;5071285;28;20562;-65
2023/05/01 04:54:57;;;;;;;15.13;6.20;;;12.00;69.30;;;;;;5065278;28;20483;-64
2023/05/01 04:57:36;;;;;;;9.43;6.83;;;12.00;69.40;;;;;;5069469;28;20451;-65
2023/05/01 05:00:12;;;;;;;9.97;6.50;;;12.10;69.40;;;;;;5071042;28;20548;-65
2023/05/01 05:03:10;;;;;;;8.37;5.80;;;12.10;69.40;;;;;;5066646;28;20464;-65
2023/05/01 05:05:51;;;;;;;9.73;6.30;;;12.20;69.50;;;;;;5069762;28;20526;-65
2023/05/01 05:08:25;;;;;;;9.53;6.63;;;12.20;69.60;;;;;;5070400;28;20468;-64
2023/05/01 05:11:01;;;;;;;10.60;7.50;;;12.30;69.70;;;;;;5063589;28;20488;-65
2023/05/01 05:13:49;;;;;;;10.87;6.40;;;12.50;69.70;;;;;;5069337;28;20472;-65
2023/05/01 05:16:24;;;;;;;11.13;7.27;;;12.70;69.80;;;;;;5066215;28;21199;-65
2023/05/01 05:18:59;;;;;;;16.37;7.80;;;13.00;69.60;;;;;;5061959;28;20495;-65
2023/05/01 05:21:46;;;;;;;12.70;7.73;;;13.20;69.20;;;;;;5069613;28;20462;-65
2023/05/01 05:24:27;;;;;;;14.73;9.23;;;13.30;68.60;;;;;;5062381;28;20466;-65
2023/05/01 05:27:00;;;;;;;20.57;9.27;;;13.30;68.50;;;;;;5069687;28;20475;-65
2023/05/01 05:29:31;;;;;;;12.17;7.77;;;13.30;68.40;;;;;;5066139;28;20485;-65
2023/05/01 05:34:49;;;;;;;13.00;8.97;;;13.40;68.20;;;;;;5070005;28;20460;-65
2023/05/01 05:37:24;;;;;;;14.27;9.37;;;13.40;68.00;;;;;;5068565;28;20548;-66
2023/05/01 05:40:01;;;;;;;13.87;8.67;;;13.40;67.90;;;;;;5084950;28;20548;-65
2023/05/01 05:42:44;;;;;;;11.90;7.57;;;13.50;67.80;;;;;;5065202;28;20475;-65
2023/05/01 05:45:30;;;;;;;12.90;8.63;;;13.60;67.90;;;;;;5065141;28;20474;-65
2023/05/01 05:48:05;;;;;;;12.47;8.97;;;13.60;67.70;;;;;;5067303;28;20469;-65
2023/05/01 05:50:52;;;;;;;19.43;9.10;;;13.80;67.80;;;;;;5068019;28;20544;-65
2023/05/01 05:53:27;;;;;;;18.90;9.20;;;14.10;67.50;;;;;;5068825;28;20460;-65
2023/05/01 05:56:00;;;;;;;13.40;8.60;;;14.30;67.40;;;;;;5066570;28;20549;-65
2023/05/01 05:58:33;;;;;;;12.73;7.43;;;14.40;66.90;;;;;;5062080;28;20833;-65
2023/05/01 06:01:11;;;;;;;13.80;9.00;;;14.30;66.20;;;;;;5063736;28;20961;-65
2023/05/01 06:03:42;;;;;;;14.40;9.10;;;14.20;66.00;;;;;;5066408;28;20473;-65
2023/05/01 06:06:33;;;;;;;13.97;8.57;;;14.00;65.90;;;;;;5065709;28;20479;-65
2023/05/01 06:09:08;;;;;;;13.80;8.70;;;13.80;65.80;;;;;;5068172;28;20466;-65
2023/05/01 06:11:39;;;;;;;18.23;9.53;;;13.60;66.00;;;;;;5064148;28;20467;-65
2023/05/01 06:14:19;;;;;;;12.40;9.20;;;13.50;66.10;;;;;;5065014;28;20469;-65
2023/05/01 06:17:01;;;;;;;16.47;9.57;;;13.50;66.20;;;;;;5067701;28;20457;-65
2023/05/01 06:19:31;;;;;;;14.50;8.97;;;13.40;66.30;;;;;;5058996;28;20558;-66
2023/05/01 06:22:16;;;;;;;14.07;9.30;;;13.30;66.30;;;;;;5068545;28;20491;-65
2023/05/01 06:25:00;;;;;;;12.50;9.43;;;13.20;66.40;;;;;;5068038;28;20552;-65
2023/05/01 06:27:44;;;;;;;15.03;9.27;;;13.20;66.50;;;;;;5066034;28;20555;-65
2023/05/01 06:30:18;;;;;;;14.17;8.40;;;13.20;66.70;;;;;;5062513;28;20838;-66
2023/05/01 06:32:56;;;;;;;15.60;8.80;;;13.20;66.70;;;;;;5064317;28;20778;-65
2023/05/01 06:35:37;;;;;;;19.53;9.93;;;13.10;66.70;;;;;;5066897;28;20535;-65
2023/05/01 06:38:26;;;;;;;17.23;8.87;;;13.10;66.70;;;;;;5066136;28;20503;-65
2023/05/01 06:41:03;;;;;;;14.33;8.67;;;13.10;66.70;;;;;;5066050;28;20457;-65
2023/05/01 06:43:50;;;;;;;14.47;9.07;;;13.10;66.80;;;;;;5065304;28;20458;-66
2023/05/01 06:46:24;;;;;;;13.80;8.43;;;13.00;66.70;;;;;;5058277;28;20466;-66
2023/05/01 06:48:57;;;;;;;12.67;8.53;;;13.00;66.70;;;;;;5066813;28;20528;-65
2023/05/01 06:51:29;;;;;;;13.80;10.10;;;12.90;66.70;;;;;;5063646;28;21098;-66
2023/05/01 06:54:15;;;;;;;17.10;8.87;;;13.00;66.80;;;;;;5067175;28;20461;-65
2023/05/01 06:56:50;;;;;;;15.03;9.40;;;13.00;66.80;;;;;;5061049;28;21031;-66
2023/05/01 06:59:19;;;;;;;14.70;9.00;;;12.90;66.80;;;;;;5060638;28;20514;-65
2023/05/01 07:01:51;;;;;;;15.00;9.47;;;12.90;67.00;;;;;;5063634;28;20985;-65
2023/05/01 07:04:25;;;;;;;16.00;9.80;;;12.90;67.20;;;;;;5064940;28;21232;-65
2023/05/01 07:06:57;;;;;;;14.17;9.70;;;13.00;67.20;;;;;;5065142;28;20505;-65
2023/05/01 07:09:37;;;;;;;17.97;9.47;;;13.00;67.20;;;;;;5066848;28;20453;-65
2023/05/01 07:12:14;;;;;;;17.70;9.90;;;13.10;67.00;;;;;;5065111;28;20480;-65
2023/05/01 07:14:53;;;;;;;15.23;9.53;;;13.20;66.90;;;;;;5069929;28;20455;-65
2023/05/01 07:17:25;;;;;;;15.60;10.00;;;13.30;66.90;;;;;;5069505;28;21020;-65
2023/05/01 07:19:57;;;;;;;16.43;9.70;;;13.30;66.80;;;;;;5070375;28;20449;-65
2023/05/01 07:22:38;;;;;;;15.20;8.93;;;13.30;66.80;;;;;;5067967;28;20468;-65
2023/05/01 07:25:15;;;;;;;14.70;10.40;;;13.30;66.80;;;;;;5069384;28;20920;-67
2023/05/01 07:27:53;;;;;;;17.73;9.10;;;13.30;66.80;;;;;;5068717;28;20497;-65
2023/05/01 07:30:29;;;;;;;15.43;10.17;;;13.40;66.90;;;;;;5067869;28;20546;-65
2023/05/01 07:33:04;;;;;;;15.10;9.90;;;13.40;67.00;;;;;;5070781;28;20500;-65
2023/05/01 07:35:40;;;;;;;14.67;9.13;;;13.50;67.10;;;;;;5071268;28;20460;-65
2023/05/01 07:38:17;;;;;;;13.13;9.53;;;13.60;67.10;;;;;;5069178;28;21015;-65
2023/05/01 07:40:55;;;;;;;15.03;8.80;;;13.60;67.00;;;;;;5072523;28;20504;-65
2023/05/01 07:43:30;;;;;;;16.20;9.97;;;13.60;66.80;;;;;;5068793;28;20993;-65
2023/05/01 07:46:00;;;;;;;15.43;9.30;;;13.70;66.80;;;;;;5067828;28;20472;-66
2023/05/01 07:48:33;;;;;;;15.80;9.63;;;13.70;66.80;;;;;;5070978;28;20475;-65
2023/05/01 07:51:09;;;;;;;16.10;9.20;;;13.70;66.70;;;;;;5070478;28;20456;-65
2023/05/01 07:53:41;;;;;;;15.03;10.90;;;13.70;66.70;;;;;;5072783;28;20449;-66
2023/05/01 07:56:20;;;;;;;14.30;8.73;;;13.70;66.70;;;;;;5071606;28;20934;-65
2023/05/01 07:58:54;;;;;;;13.57;9.23;;;13.80;66.60;;;;;;5072426;28;20482;-66
2023/05/01 08:01:29;;;;;;;14.23;9.23;;;13.90;66.50;;;;;;5057797;28;20578;-66
2023/05/01 08:04:01;;;;;;;11.40;8.20;;;13.90;66.40;;;;;;5063512;28;20548;-66
2023/05/01 08:06:32;;;;;;;15.80;9.17;;;14.00;66.40;;;;;;5072140;28;20535;-66
2023/05/01 08:09:07;;;;;;;17.40;9.00;;;14.00;66.30;;;;;;5072251;28;20516;-65
2023/05/01 08:11:47;;;;;;;12.93;8.60;;;14.10;66.10;;;;;;5061377;28;20456;-65
2023/05/01 08:14:26;;;;;;;15.20;9.37;;;14.20;66.00;;;;;;5070177;28;20468;-66
2023/05/01 08:16:55;;;;;;;16.23;9.43;;;14.20;65.80;;;;;;5071524;28;20556;-67
2023/05/01 08:19:28;;;;;;;14.70;8.90;;;14.20;65.80;;;;;;5070091;28;20457;-66
2023/05/01 08:22:00;;;;;;;22.07;10.27;;;14.20;65.70;;;;;;5068986;28;20582;-66
2023/05/01 08:24:33;;;;;;;29.73;10.43;;;14.20;65.70;;;;;;5070859;28;20559;-65
2023/05/01 08:27:12;;;;;;;16.30;9.40;;;14.30;65.80;;;;;;5063805;28;20452;-66
2023/05/01 08:29:43;;;;;;;17.77;9.77;;;14.30;65.60;;;;;;5067659;28;20491;-66
2023/05/01 08:32:15;;;;;;;12.60;9.00;;;14.30;65.40;;;;;;5067570;28;21001;-65
2023/05/01 08:34:54;;;;;;;13.73;8.83;;;14.30;65.40;;;;;;5069901;28;20461;-66
2023/05/01 08:37:27;;;;;;;14.80;8.60;;;14.30;65.40;;;;;;5065961;28;20497;-66
2023/05/01 08:39:59;;;;;;;14.00;9.07;;;14.40;65.30;;;;;;5071630;28;20516;-66
2023/05/01 08:42:32;;;;;;;19.67;9.33;;;14.40;65.30;;;;;;5068734;28;21300;-66
2023/05/01 08:45:05;;;;;;;31.87;12.47;;;14.40;65.20;;;;;;5066719;28;20527;-65
2023/05/01 08:47:43;;;;;;;18.13;9.33;;;14.40;65.20;;;;;;5067631;28;20471;-66
2023/05/01 08:50:17;;;;;;;16.67;10.13;;;14.50;65.20;;;;;;5070039;28;20454;-67
2023/05/01 08:52:54;;;;;;;12.40;8.37;;;14.60;65.20;;;;;;5065690;28;20802;-66
2023/05/01 08:55:27;;;;;;;14.20;8.13;;;14.60;65.10;;;;;;5066574;28;20778;-66
2023/05/01 08:58:08;;;;;;;11.93;8.03;;;14.60;65.10;;;;;;5065771;28;20499;-66
2023/05/01 09:00:40;;;;;;;14.23;9.13;;;14.60;65.10;;;;;;5062242;28;20492;-66
2023/05/01 09:03:14;;;;;;;14.60;8.27;;;14.60;65.10;;;;;;5063644;28;20964;-66
2023/05/01 09:05:51;;;;;;;16.23;9.20;;;14.70;65.10;;;;;;5067974;28;20516;-66
2023/05/01 09:08:22;;;;;;;14.00;8.90;;;14.70;65.10;;;;;;5066629;28;20477;-66
2023/05/01 09:10:59;;;;;;;17.20;9.37;;;14.80;65.00;;;;;;5066863;28;20464;-66
2023/05/01 09:13:43;;;;;;;13.90;8.67;;;14.80;65.00;;;;;;5065238;28;20462;-66
2023/05/01 09:16:13;;;;;;;20.13;9.13;;;14.90;64.80;;;;;;5062549;28;20476;-66
2023/05/01 09:18:53;;;;;;;13.97;9.50;;;14.90;64.80;;;;;;5063816;28;20549;-66
2023/05/01 09:21:25;;;;;;;15.40;9.30;;;14.90;64.70;;;;;;5061316;28;20474;-66
2023/05/01 09:23:56;;;;;;;11.77;8.70;;;15.00;64.60;;;;;;5065518;28;20547;-66
2023/05/01 09:26:27;;;;;;;14.57;9.40;;;14.90;64.50;;;;;;5063649;28;20502;-66
2023/05/01 09:29:02;;;;;;;13.13;8.77;;;14.90;64.60;;;;;;5063773;28;20479;-66
2023/05/01 09:31:36;;;;;;;15.37;9.93;;;14.90;64.50;;;;;;5064413;28;20923;-66
2023/05/01 09:34:14;;;;;;;14.83;8.93;;;14.90;64.30;;;;;;5062899;28;20449;-66
2023/05/01 09:36:49;;;;;;;18.40;10.20;;;14.90;64.30;;;;;;5061424;28;20826;-65
2023/05/01 09:39:25;;;;;;;11.93;7.80;;;14.90;64.30;;;;;;5060830;28;21182;-64
2023/05/01 09:41:57;;;;;;;14.10;8.50;;;14.90;64.20;;;;;;5064989;28;20563;-67
2023/05/01 09:44:32;;;;;;;13.30;9.30;;;14.90;64.10;;;;;;5064865;28;20494;-65
2023/05/01 09:47:09;;;;;;;17.80;10.40;;;14.90;64.00;;;;;;5063502;28;20497;-67
2023/05/01 09:49:48;;;;;;;14.70;9.80;;;14.90;64.00;;;;;;5063589;28;20560;-67
2023/05/01 09:52:28;;;;;;;15.30;10.20;;;14.80;64.00;;;;;;5064842;28;20458;-67
2023/05/01 09:55:18;;;;;;;14.57;8.97;;;14.90;64.00;;;;;;5066598;28;20961;-65
2023/05/01 09:57:52;;;;;;;12.97;9.03;;;14.90;63.90;;;;;;5063115;28;20876;-65
2023/05/01 10:00:46;;;;;;;16.90;10.13;;;15.00;63.80;;;;;;5065795;28;20883;-66
2023/05/01 10:03:17;;;;;;;18.60;8.97;;;15.00;63.80;;;;;;5062335;28;20861;-65
2023/05/01 10:05:48;;;;;;;15.70;9.73;;;15.00;63.80;;;;;;5061904;28;20473;-65
2023/05/01 10:08:18;;;;;;;11.87;8.70;;;15.00;63.80;;;;;;5063862;28;20472;-66
2023/05/01 10:11:04;;;;;;;11.67;8.53;;;15.00;63.70;;;;;;5062857;28;21018;-65
2023/05/01 10:13:48;;;;;;;13.00;8.27;;;15.10;63.70;;;;;;5062941;28;21075;-65
2023/05/01 10:16:44;;;;;;;13.53;9.60;;;15.10;63.70;;;;;;5065344;28;20528;-65
2023/05/01 10:19:17;;;;;;;15.40;9.43;;;15.10;63.50;;;;;;5066381;28;20475;-65
2023/05/01 10:21:57;;;;;;;13.37;8.70;;;15.20;63.50;;;;;;5065127;28;20473;-66
2023/05/01 10:24:28;;;;;;;13.30;8.70;;;15.20;63.50;;;;;;5064618;28;20964;-65
2023/05/01 10:26:57;;;;;;;14.47;8.50;;;15.20;63.50;;;;;;5066656;28;20553;-65
2023/05/01 10:29:36;;;;;;;16.97;9.27;;;15.20;63.60;;;;;;5067831;28;20513;-65
2023/05/01 10:32:10;;;;;;;12.07;8.00;;;15.20;63.60;;;;;;5064322;28;20981;-65
2023/05/01 10:34:51;;;;;;;11.93;7.83;;;15.30;63.70;;;;;;5067481;28;20525;-65
2023/05/01 10:37:31;;;;;;;14.23;8.13;;;15.30;63.70;;;;;;5066192;28;20519;-65
2023/05/01 10:40:43;;;;;;;16.70;8.63;;;15.30;63.80;;;;;;5067518;28;20486;-65
2023/05/01 10:43:19;;;;;;;16.20;9.70;;;15.40;63.80;;;;;;5067346;28;20540;-65
2023/05/01 10:45:53;;;;;;;12.90;9.30;;;15.30;63.60;;;;;;5070909;28;20862;-65
2023/05/01 10:48:55;;;;;;;14.70;9.13;;;15.30;63.60;;;;;;5071509;28;20459;-66
2023/05/01 10:51:29;;;;;;;13.53;9.00;;;15.30;63.60;;;;;;5026167;28;20494;-65
2023/05/01 10:54:30;;;;;;;11.77;8.20;;;15.30;63.70;;;;;;5069702;28;20462;-65
2023/05/01 10:57:06;;;;;;;18.27;8.97;;;15.40;63.70;;;;;;5055146;28;20499;-66
2023/05/01 11:00:23;;;;;;;11.17;8.70;;;15.40;63.80;;;;;;5073696;28;20452;-65
2023/05/01 11:03:39;;;;;;;15.20;8.50;;;15.40;63.70;;;;;;5070603;28;20473;-65
2023/05/01 11:06:16;;;;;;;17.13;9.20;;;15.40;63.70;;;;;;5072131;28;20468;-65
2023/05/01 11:08:48;;;;;;;12.17;8.10;;;15.40;63.80;;;;;;5065797;28;20471;-66
2023/05/01 11:11:49;;;;;;;17.03;8.80;;;15.40;63.70;;;;;;5063493;28;20516;-65
2023/05/01 11:14:21;;;;;;;17.17;9.67;;;15.50;63.70;;;;;;5070156;28;20848;-65
2023/05/01 11:19:57;;;;;;;11.10;8.17;;;15.50;63.80;;;;;;5065554;28;21004;-65
2023/05/01 11:22:41;;;;;;;17.00;9.07;;;15.50;63.90;;;;;;5068004;28;20467;-66
2023/05/01 11:25:24;;;;;;;13.40;8.27;;;15.40;64.00;;;;;;5071370;28;20834;-65
2023/05/01 11:30:45;;;;;;;13.30;9.03;;;15.50;64.10;;;;;;5072077;28;20827;-65
2023/05/01 11:33:24;;;;;;;18.20;13.50;;;15.50;64.10;;;;;;5066711;28;20472;-65
2023/05/01 11:36:05;;;;;;;14.77;9.60;;;15.50;64.20;;;;;;5069718;28;21192;-65
2023/05/01 11:38:51;;;;;;;14.43;10.17;;;15.50;64.30;;;;;;5071144;28;20463;-65
2023/05/01 11:41:31;;;;;;;13.50;9.13;;;15.40;64.30;;;;;;5070131;28;20499;-66
2023/05/01 11:44:02;;;;;;;14.53;10.63;;;15.50;64.20;;;;;;5074942;28;20782;-65
2023/05/01 11:46:39;;;;;;;13.83;9.63;;;15.40;64.10;;;;;;5071529;28;20500;-65
2023/05/01 11:49:18;;;;;;;13.80;9.27;;;15.50;64.10;;;;;;5068986;28;21135;-65
2023/05/01 11:51:59;;;;;;;14.10;10.03;;;15.50;64.20;;;;;;5068625;28;20526;-65
2023/05/01 11:54:50;;;;;;;13.97;8.63;;;15.50;64.20;;;;;;5068198;28;20459;-66
2023/05/01 11:57:24;;;;;;;15.53;9.20;;;15.50;64.20;;;;;;5065793;28;20470;-65
2023/05/01 12:00:08;;;;;;;15.30;9.17;;;15.50;64.10;;;;;;5071075;28;20459;-65
2023/05/01 12:02:46;;;;;;;16.23;10.00;;;15.50;64.10;;;;;;5068942;28;20483;-65
2023/05/01 12:05:22;;;;;;;14.13;9.00;;;15.50;64.20;;;;;;5064665;28;20565;-65
2023/05/01 12:08:06;;;;;;;12.93;9.63;;;15.50;64.30;;;;;;5068378;28;20465;-66
2023/05/01 12:10:45;;;;;;;13.93;9.00;;;15.50;64.30;;;;;;5068474;28;21256;-66
2023/05/01 12:13:29;;;;;;;11.50;8.80;;;15.60;64.20;;;;;;5071763;28;20865;-66
2023/05/01 12:16:03;;;;;;;23.97;10.20;;;15.60;64.20;;;;;;5069912;28;22252;-66
2023/05/01 12:18:35;;;;;;;16.40;10.13;;;15.60;64.10;;;;;;5067189;28;20495;-65
2023/05/01 12:21:14;;;;;;;16.90;9.90;;;15.70;64.10;;;;;;5068771;28;20452;-66
2023/05/01 12:23:46;;;;;;;13.50;9.50;;;15.70;64.20;;;;;;5064682;28;20469;-65
2023/05/01 12:26:26;;;;;;;14.10;10.27;;;15.70;64.30;;;;;;5062704;28;20758;-65
2023/05/01 12:28:58;;;;;;;16.30;11.93;;;15.70;64.40;;;;;;5061377;28;20468;-65
2023/05/01 12:31:49;;;;;;;19.40;13.70;;;15.80;64.40;;;;;;5062683;28;20495;-65
2023/05/01 12:34:35;;;;;;;13.60;9.83;;;15.80;64.30;;;;;;5066838;28;20951;-66
2023/05/01 12:37:08;;;;;;;14.83;9.83;;;15.80;64.20;;;;;;5069004;28;20517;-66
2023/05/01 12:39:43;;;;;;;13.80;10.70;;;15.80;64.20;;;;;;5064191;28;20475;-66
2023/05/01 12:42:23;;;;;;;12.43;9.57;;;15.80;64.10;;;;;;5070070;28;20859;-65
2023/05/01 12:45:00;;;;;;;14.50;9.70;;;15.80;64.10;;;;;;5067780;28;20479;-65
2023/05/01 12:47:39;;;;;;;11.97;9.40;;;15.80;64.10;;;;;;5069996;28;20510;-66
2023/05/01 12:50:12;;;;;;;15.17;10.40;;;15.80;64.00;;;;;;5069210;28;20495;-65
2023/05/01 12:52:45;;;;;;;14.90;10.33;;;15.80;64.30;;;;;;5067227;28;20478;-66
2023/05/01 12:55:14;;;;;;;12.87;9.00;;;15.90;64.40;;;;;;5068148;28;20525;-65
2023/05/01 12:58:03;;;;;;;13.90;10.40;;;15.90;64.50;;;;;;5065644;28;20468;-65
2023/05/01 13:00:51;;;;;;;18.60;10.20;;;15.90;64.50;;;;;;5065863;28;20467;-65
2023/05/01 13:03:30;;;;;;;16.67;11.03;;;16.00;64.60;;;;;;5069994;28;20452;-65
2023/05/01 13:06:09;;;;;;;15.20;10.33;;;15.90;64.60;;;;;;5069571;28;20559;-68
2023/05/01 13:08:44;;;;;;;17.00;9.90;;;16.00;64.60;;;;;;5071021;28;20563;-66
2023/05/01 13:11:16;;;;;;;14.20;10.20;;;16.00;64.60;;;;;;5070038;28;20491;-66
2023/05/01 13:13:50;;;;;;;13.83;9.97;;;15.90;64.70;;;;;;5067804;28;20526;-66
2023/05/01 13:16:25;;;;;;;15.90;10.00;;;16.00;64.60;;;;;;5067406;28;20476;-66
2023/05/01 13:19:00;;;;;;;17.23;10.30;;;16.00;64.60;;;;;;5069428;28;21016;-66
2023/05/01 13:21:32;;;;;;;12.80;9.97;;;16.00;64.60;;;;;;5067298;28;20472;-65
2023/05/01 13:24:17;;;;;;;12.93;10.40;;;16.00;64.60;;;;;;5069470;28;20467;-65
2023/05/01 13:26:51;;;;;;;16.20;9.80;;;16.10;64.80;;;;;;5069179;28;20782;-66
2023/05/01 13:29:29;;;;;;;14.10;9.20;;;16.20;64.70;;;;;;5067371;28;20984;-66
2023/05/01 13:32:06;;;;;;;16.40;8.63;;;16.20;64.80;;;;;;5068304;28;21149;-66
2023/05/01 13:34:42;;;;;;;12.23;8.17;;;16.20;64.80;;;;;;5067436;28;20523;-66
2023/05/01 13:37:21;;;;;;;12.70;7.70;;;16.30;64.60;;;;;;5069749;28;20453;-66
2023/05/01 13:39:59;;;;;;;20.83;11.20;;;16.30;64.40;;;;;;5067090;28;20467;-66
2023/05/01 13:42:32;;;;;;;20.00;10.67;;;16.40;64.20;;;;;;5067979;28;20511;-66
2023/05/01 13:45:23;;;;;;;13.00;8.67;;;16.40;64.00;;;;;;5065161;28;20598;-66
2023/05/01 13:47:58;;;;;;;8.97;6.37;;;16.40;63.70;;;;;;5069680;28;20464;-66
2023/05/01 13:50:36;;;;;;;10.67;7.90;;;16.40;63.70;;;;;;5068597;28;20468;-66